sensor_id;sensor_type;location;lat;lon;timestamp;temperature;humidity
7129;DHT22;3606;52.930;8.644;2024-03-25T00:01:14;5.40;99.90
7129;DHT22;3606;52.930;8.644;2024-03-25T00:03:40;5.40;99.90
7129;DHT22;3606;52.930;8.644;2024-03-25T00:06:05;5.40;99.90
7129;DHT22;3606;52.930;8.644;2024-03-25T00:08:32;5.40;99.90
7129;DHT22;3606;52.930;8.644;2024-03-25T00:10:57;5.40;99.90
7129;DHT22;3606;52.930;8.644;2024-03-25T00:13:23;5.40;99.90
7129;DHT22;3606;52.930;8.644;2024-03-25T00:15:49;5.40;99.90
7129;DHT22;3606;52.930;8.644;2024-03-25T00:18:15;5.40;99.90
7129;DHT22;3606;52.930;8.644;2024-03-25T00:20:40;5.50;99.90
7129;DHT22;3606;52.930;8.644;2024-03-25T00:23:06;5.40;99.90
7129;DHT22;3606;52.930;8.644;2024-03-25T00:25:32;5.40;99.90
7129;DHT22;3606;52.930;8.644;2024-03-25T00:27:58;5.50;99.90
7129;DHT22;3606;52.930;8.644;2024-03-25T00:30:23;5.50;99.90
7129;DHT22;3606;52.930;8.644;2024-03-25T00:32:49;5.50;99.90
7129;DHT22;3606;52.930;8.644;2024-03-25T00:35:15;5.40;99.90
7129;DHT22;3606;52.930;8.644;2024-03-25T00:37:40;5.30;99.90
7129;DHT22;3606;52.930;8.644;2024-03-25T00:40:07;5.30;99.90
7129;DHT22;3606;52.930;8.644;2024-03-25T00:42:33;5.20;99.90
7129;DHT22;3606;52.930;8.644;2024-03-25T00:44:59;5.10;99.90
7129;DHT22;3606;52.930;8.644;2024-03-25T00:47:25;5.00;99.90
7129;DHT22;3606;52.930;8.644;2024-03-25T00:49:51;5.10;99.90
7129;DHT22;3606;52.930;8.644;2024-03-25T00:52:17;5.20;99.90
7129;DHT22;3606;52.930;8.644;2024-03-25T00:54:42;5.20;99.90
7129;DHT22;3606;52.930;8.644;2024-03-25T00:57:08;5.20;99.90
7129;DHT22;3606;52.930;8.644;2024-03-25T00:59:33;5.10;99.90
7129;DHT22;3606;52.930;8.644;2024-03-25T01:01:59;5.10;99.90
7129;DHT22;3606;52.930;8.644;2024-03-25T01:04:25;5.10;99.90
7129;DHT22;3606;52.930;8.644;2024-03-25T01:06:50;5.00;99.90
7129;DHT22;3606;52.930;8.644;2024-03-25T01:09:16;4.80;99.90
7129;DHT22;3606;52.930;8.644;2024-03-25T01:11:41;4.70;99.90
7129;DHT22;3606;52.930;8.644;2024-03-25T01:14:07;4.60;99.90
7129;DHT22;3606;52.930;8.644;2024-03-25T01:16:33;4.60;99.90
7129;DHT22;3606;52.930;8.644;2024-03-25T01:18:59;4.50;99.90
7129;DHT22;3606;52.930;8.644;2024-03-25T01:21:25;4.40;99.90
7129;DHT22;3606;52.930;8.644;2024-03-25T01:23:50;4.40;99.90
7129;DHT22;3606;52.930;8.644;2024-03-25T01:26:16;4.30;99.90
7129;DHT22;3606;52.930;8.644;2024-03-25T01:28:42;4.20;99.90
7129;DHT22;3606;52.930;8.644;2024-03-25T01:31:08;4.10;99.90
7129;DHT22;3606;52.930;8.644;2024-03-25T01:33:34;4.10;99.90
7129;DHT22;3606;52.930;8.644;2024-03-25T01:36:00;4.00;99.90
7129;DHT22;3606;52.930;8.644;2024-03-25T01:38:26;3.90;99.90
7129;DHT22;3606;52.930;8.644;2024-03-25T01:40:51;3.90;99.90
7129;DHT22;3606;52.930;8.644;2024-03-25T01:43:17;4.00;99.90
7129;DHT22;3606;52.930;8.644;2024-03-25T01:45:43;3.90;99.90
7129;DHT22;3606;52.930;8.644;2024-03-25T01:48:10;3.90;99.90
7129;DHT22;3606;52.930;8.644;2024-03-25T01:50:43;3.80;99.90
7129;DHT22;3606;52.930;8.644;2024-03-25T01:53:11;3.80;99.90
7129;DHT22;3606;52.930;8.644;2024-03-25T01:55:38;3.90;99.90
7129;DHT22;3606;52.930;8.644;2024-03-25T01:58:04;4.00;99.90
7129;DHT22;3606;52.930;8.644;2024-03-25T02:00:31;4.20;99.90
7129;DHT22;3606;52.930;8.644;2024-03-25T02:02:57;4.20;99.90
7129;DHT22;3606;52.930;8.644;2024-03-25T02:05:23;4.20;99.90
7129;DHT22;3606;52.930;8.644;2024-03-25T02:07:49;4.10;99.90
7129;DHT22;3606;52.930;8.644;2024-03-25T02:10:15;4.20;99.90
7129;DHT22;3606;52.930;8.644;2024-03-25T02:12:46;4.10;99.90
7129;DHT22;3606;52.930;8.644;2024-03-25T02:15:12;4.10;99.90
7129;DHT22;3606;52.930;8.644;2024-03-25T02:17:38;4.20;99.90
7129;DHT22;3606;52.930;8.644;2024-03-25T02:20:05;4.20;99.90
7129;DHT22;3606;52.930;8.644;2024-03-25T02:22:33;4.20;99.90
7129;DHT22;3606;52.930;8.644;2024-03-25T02:24:59;4.20;99.90
7129;DHT22;3606;52.930;8.644;2024-03-25T02:27:26;4.40;99.90
7129;DHT22;3606;52.930;8.644;2024-03-25T02:30:08;4.40;99.90
7129;DHT22;3606;52.930;8.644;2024-03-25T02:32:35;4.50;99.90
7129;DHT22;3606;52.930;8.644;2024-03-25T02:35:04;4.50;99.90
7129;DHT22;3606;52.930;8.644;2024-03-25T02:37:30;4.60;99.90
7129;DHT22;3606;52.930;8.644;2024-03-25T02:39:58;4.60;99.90
7129;DHT22;3606;52.930;8.644;2024-03-25T02:42:28;4.60;99.90
7129;DHT22;3606;52.930;8.644;2024-03-25T02:44:57;4.70;99.90
7129;DHT22;3606;52.930;8.644;2024-03-25T02:47:24;4.70;99.90
7129;DHT22;3606;52.930;8.644;2024-03-25T02:49:49;4.70;99.90
7129;DHT22;3606;52.930;8.644;2024-03-25T02:52:15;4.70;99.90
7129;DHT22;3606;52.930;8.644;2024-03-25T02:54:40;4.70;99.90
7129;DHT22;3606;52.930;8.644;2024-03-25T02:57:06;4.70;99.90
7129;DHT22;3606;52.930;8.644;2024-03-25T02:59:32;4.70;99.90
7129;DHT22;3606;52.930;8.644;2024-03-25T03:01:57;4.70;99.90
7129;DHT22;3606;52.930;8.644;2024-03-25T03:04:23;4.70;99.90
7129;DHT22;3606;52.930;8.644;2024-03-25T03:06:48;4.80;99.90
7129;DHT22;3606;52.930;8.644;2024-03-25T03:09:14;4.80;99.90
7129;DHT22;3606;52.930;8.644;2024-03-25T03:11:41;4.90;99.90
7129;DHT22;3606;52.930;8.644;2024-03-25T03:14:06;5.00;99.90
7129;DHT22;3606;52.930;8.644;2024-03-25T03:16:32;5.00;99.90
7129;DHT22;3606;52.930;8.644;2024-03-25T03:18:57;5.00;99.90
7129;DHT22;3606;52.930;8.644;2024-03-25T03:21:23;5.00;99.90
7129;DHT22;3606;52.930;8.644;2024-03-25T03:23:48;5.10;99.90
7129;DHT22;3606;52.930;8.644;2024-03-25T03:26:14;5.10;99.90
7129;DHT22;3606;52.930;8.644;2024-03-25T03:28:40;5.10;99.90
7129;DHT22;3606;52.930;8.644;2024-03-25T03:31:06;5.00;99.90
7129;DHT22;3606;52.930;8.644;2024-03-25T03:33:32;5.10;99.90
7129;DHT22;3606;52.930;8.644;2024-03-25T03:35:58;5.10;99.90
7129;DHT22;3606;52.930;8.644;2024-03-25T03:38:23;5.10;99.90
7129;DHT22;3606;52.930;8.644;2024-03-25T03:41:02;5.10;99.90
7129;DHT22;3606;52.930;8.644;2024-03-25T03:43:28;5.10;99.90
7129;DHT22;3606;52.930;8.644;2024-03-25T03:45:54;5.10;99.90
7129;DHT22;3606;52.930;8.644;2024-03-25T03:48:20;5.10;99.90
7129;DHT22;3606;52.930;8.644;2024-03-25T03:50:46;5.10;99.90
7129;DHT22;3606;52.930;8.644;2024-03-25T03:53:11;5.00;99.90
7129;DHT22;3606;52.930;8.644;2024-03-25T03:55:37;5.00;99.90
7129;DHT22;3606;52.930;8.644;2024-03-25T03:58:03;4.90;99.90
7129;DHT22;3606;52.930;8.644;2024-03-25T04:00:29;4.80;99.90
7129;DHT22;3606;52.930;8.644;2024-03-25T04:02:55;4.90;99.90
7129;DHT22;3606;52.930;8.644;2024-03-25T04:05:20;4.90;99.90
7129;DHT22;3606;52.930;8.644;2024-03-25T04:07:46;4.90;99.90
7129;DHT22;3606;52.930;8.644;2024-03-25T04:10:12;4.90;99.90
7129;DHT22;3606;52.930;8.644;2024-03-25T04:12:39;4.90;99.90
7129;DHT22;3606;52.930;8.644;2024-03-25T04:15:05;4.90;99.90
7129;DHT22;3606;52.930;8.644;2024-03-25T04:17:31;4.80;99.90
7129;DHT22;3606;52.930;8.644;2024-03-25T04:19:59;4.60;99.90
7129;DHT22;3606;52.930;8.644;2024-03-25T04:22:31;4.50;99.90
7129;DHT22;3606;52.930;8.644;2024-03-25T04:24:59;4.30;99.90
7129;DHT22;3606;52.930;8.644;2024-03-25T04:27:25;4.10;99.90
7129;DHT22;3606;52.930;8.644;2024-03-25T04:29:52;4.10;99.90
7129;DHT22;3606;52.930;8.644;2024-03-25T04:32:17;4.20;99.90
7129;DHT22;3606;52.930;8.644;2024-03-25T04:34:43;4.20;99.90
7129;DHT22;3606;52.930;8.644;2024-03-25T04:37:09;4.20;99.90
7129;DHT22;3606;52.930;8.644;2024-03-25T04:39:35;4.20;99.90
7129;DHT22;3606;52.930;8.644;2024-03-25T04:42:01;4.20;99.90
7129;DHT22;3606;52.930;8.644;2024-03-25T04:44:27;4.30;99.90
7129;DHT22;3606;52.930;8.644;2024-03-25T04:46:53;4.40;99.90
7129;DHT22;3606;52.930;8.644;2024-03-25T04:49:21;4.40;99.90
7129;DHT22;3606;52.930;8.644;2024-03-25T04:51:47;4.50;99.90
7129;DHT22;3606;52.930;8.644;2024-03-25T04:54:13;4.50;99.90
7129;DHT22;3606;52.930;8.644;2024-03-25T04:56:38;4.60;99.90
7129;DHT22;3606;52.930;8.644;2024-03-25T04:59:04;4.60;99.90
7129;DHT22;3606;52.930;8.644;2024-03-25T05:01:30;4.60;99.90
7129;DHT22;3606;52.930;8.644;2024-03-25T05:03:55;4.60;99.90
7129;DHT22;3606;52.930;8.644;2024-03-25T05:06:21;4.60;99.90
7129;DHT22;3606;52.930;8.644;2024-03-25T05:08:46;4.60;99.90
7129;DHT22;3606;52.930;8.644;2024-03-25T05:11:12;4.60;99.90
7129;DHT22;3606;52.930;8.644;2024-03-25T05:13:37;4.60;99.90
7129;DHT22;3606;52.930;8.644;2024-03-25T05:16:03;4.60;99.90
7129;DHT22;3606;52.930;8.644;2024-03-25T05:18:29;4.70;99.90
7129;DHT22;3606;52.930;8.644;2024-03-25T05:20:54;4.60;99.90
7129;DHT22;3606;52.930;8.644;2024-03-25T05:23:20;4.60;99.90
7129;DHT22;3606;52.930;8.644;2024-03-25T05:25:46;4.60;99.90
7129;DHT22;3606;52.930;8.644;2024-03-25T05:28:11;4.70;99.90
7129;DHT22;3606;52.930;8.644;2024-03-25T05:30:39;4.60;99.90
7129;DHT22;3606;52.930;8.644;2024-03-25T05:33:04;4.60;99.90
7129;DHT22;3606;52.930;8.644;2024-03-25T05:35:30;4.70;99.90
7129;DHT22;3606;52.930;8.644;2024-03-25T05:37:58;4.70;99.90
7129;DHT22;3606;52.930;8.644;2024-03-25T05:40:24;4.70;99.90
7129;DHT22;3606;52.930;8.644;2024-03-25T05:42:49;4.70;99.90
7129;DHT22;3606;52.930;8.644;2024-03-25T05:45:15;4.70;99.90
7129;DHT22;3606;52.930;8.644;2024-03-25T05:47:41;4.70;99.90
7129;DHT22;3606;52.930;8.644;2024-03-25T05:50:07;4.70;99.90
7129;DHT22;3606;52.930;8.644;2024-03-25T05:52:33;4.70;99.90
7129;DHT22;3606;52.930;8.644;2024-03-25T05:54:59;4.80;99.90
7129;DHT22;3606;52.930;8.644;2024-03-25T05:57:24;4.70;99.90
7129;DHT22;3606;52.930;8.644;2024-03-25T05:59:50;4.80;99.90
7129;DHT22;3606;52.930;8.644;2024-03-25T06:02:15;4.80;99.90
7129;DHT22;3606;52.930;8.644;2024-03-25T06:04:41;4.80;99.90
7129;DHT22;3606;52.930;8.644;2024-03-25T06:07:07;4.90;99.90
7129;DHT22;3606;52.930;8.644;2024-03-25T06:09:32;5.00;99.90
7129;DHT22;3606;52.930;8.644;2024-03-25T06:11:58;5.00;99.90
7129;DHT22;3606;52.930;8.644;2024-03-25T06:14:23;5.10;99.90
7129;DHT22;3606;52.930;8.644;2024-03-25T06:16:49;5.10;99.90
7129;DHT22;3606;52.930;8.644;2024-03-25T06:19:15;5.10;99.90
7129;DHT22;3606;52.930;8.644;2024-03-25T06:21:40;5.10;99.90
7129;DHT22;3606;52.930;8.644;2024-03-25T06:24:08;5.10;99.90
7129;DHT22;3606;52.930;8.644;2024-03-25T06:26:34;5.20;99.90
7129;DHT22;3606;52.930;8.644;2024-03-25T06:29:00;5.20;99.90
7129;DHT22;3606;52.930;8.644;2024-03-25T06:31:25;5.20;99.90
7129;DHT22;3606;52.930;8.644;2024-03-25T06:34:10;5.30;99.90
7129;DHT22;3606;52.930;8.644;2024-03-25T06:36:47;5.30;99.90
7129;DHT22;3606;52.930;8.644;2024-03-25T06:39:13;5.40;99.90
7129;DHT22;3606;52.930;8.644;2024-03-25T06:41:39;5.40;99.90
7129;DHT22;3606;52.930;8.644;2024-03-25T06:44:05;5.50;99.90
7129;DHT22;3606;52.930;8.644;2024-03-25T06:46:31;5.50;99.90
7129;DHT22;3606;52.930;8.644;2024-03-25T06:48:57;5.60;99.90
7129;DHT22;3606;52.930;8.644;2024-03-25T06:51:23;5.60;99.90
7129;DHT22;3606;52.930;8.644;2024-03-25T06:53:48;5.60;99.90
7129;DHT22;3606;52.930;8.644;2024-03-25T06:56:14;5.60;99.90
7129;DHT22;3606;52.930;8.644;2024-03-25T06:58:40;5.60;99.90
7129;DHT22;3606;52.930;8.644;2024-03-25T07:01:07;5.80;99.90
7129;DHT22;3606;52.930;8.644;2024-03-25T07:03:34;6.20;99.90
7129;DHT22;3606;52.930;8.644;2024-03-25T07:06:00;7.00;99.90
7129;DHT22;3606;52.930;8.644;2024-03-25T07:08:29;7.40;99.90
7129;DHT22;3606;52.930;8.644;2024-03-25T07:10:58;7.60;99.90
7129;DHT22;3606;52.930;8.644;2024-03-25T07:13:24;7.60;99.90
7129;DHT22;3606;52.930;8.644;2024-03-25T07:15:50;7.50;99.90
7129;DHT22;3606;52.930;8.644;2024-03-25T07:18:16;7.40;99.90
7129;DHT22;3606;52.930;8.644;2024-03-25T07:20:43;7.40;99.90
7129;DHT22;3606;52.930;8.644;2024-03-25T07:23:09;7.40;99.90
7129;DHT22;3606;52.930;8.644;2024-03-25T07:25:35;7.50;99.90
7129;DHT22;3606;52.930;8.644;2024-03-25T07:28:01;7.40;99.90
7129;DHT22;3606;52.930;8.644;2024-03-25T07:30:28;7.40;99.90
7129;DHT22;3606;52.930;8.644;2024-03-25T07:32:58;7.40;99.90
7129;DHT22;3606;52.930;8.644;2024-03-25T07:35:24;7.50;99.90
7129;DHT22;3606;52.930;8.644;2024-03-25T07:37:50;7.50;99.90
7129;DHT22;3606;52.930;8.644;2024-03-25T07:40:22;7.40;99.90
7129;DHT22;3606;52.930;8.644;2024-03-25T07:42:48;8.20;99.90
7129;DHT22;3606;52.930;8.644;2024-03-25T07:45:17;10.00;99.90
7129;DHT22;3606;52.930;8.644;2024-03-25T07:47:42;11.80;99.90
7129;DHT22;3606;52.930;8.644;2024-03-25T07:50:08;12.60;99.90
7129;DHT22;3606;52.930;8.644;2024-03-25T07:52:34;12.40;99.90
7129;DHT22;3606;52.930;8.644;2024-03-25T07:55:08;11.70;99.90
7129;DHT22;3606;52.930;8.644;2024-03-25T07:57:34;11.10;1.00
7129;DHT22;3606;52.930;8.644;2024-03-25T07:59:59;10.60;99.90
7129;DHT22;3606;52.930;8.644;2024-03-25T08:02:25;10.40;99.90
7129;DHT22;3606;52.930;8.644;2024-03-25T08:04:51;10.30;99.90
7129;DHT22;3606;52.930;8.644;2024-03-25T08:07:16;10.40;99.90
7129;DHT22;3606;52.930;8.644;2024-03-25T08:09:42;10.20;99.90
7129;DHT22;3606;52.930;8.644;2024-03-25T08:12:08;10.10;99.90
7129;DHT22;3606;52.930;8.644;2024-03-25T08:14:33;10.00;99.90
7129;DHT22;3606;52.930;8.644;2024-03-25T08:16:59;10.20;99.90
7129;DHT22;3606;52.930;8.644;2024-03-25T08:19:24;10.50;99.90
7129;DHT22;3606;52.930;8.644;2024-03-25T08:21:50;10.60;99.90
7129;DHT22;3606;52.930;8.644;2024-03-25T08:24:16;10.80;99.90
7129;DHT22;3606;52.930;8.644;2024-03-25T08:26:42;11.00;99.90
7129;DHT22;3606;52.930;8.644;2024-03-25T08:29:07;11.20;99.90
7129;DHT22;3606;52.930;8.644;2024-03-25T08:31:33;11.60;99.90
7129;DHT22;3606;52.930;8.644;2024-03-25T08:33:58;12.60;99.90
7129;DHT22;3606;52.930;8.644;2024-03-25T08:36:24;13.10;99.90
7129;DHT22;3606;52.930;8.644;2024-03-25T08:38:49;13.30;99.90
7129;DHT22;3606;52.930;8.644;2024-03-25T08:41:15;12.50;99.90
7129;DHT22;3606;52.930;8.644;2024-03-25T08:43:41;12.20;99.90
7129;DHT22;3606;52.930;8.644;2024-03-25T08:46:06;12.00;99.90
7129;DHT22;3606;52.930;8.644;2024-03-25T08:48:32;11.80;99.90
7129;DHT22;3606;52.930;8.644;2024-03-25T08:50:57;11.70;99.90
7129;DHT22;3606;52.930;8.644;2024-03-25T08:53:23;11.20;99.90
7129;DHT22;3606;52.930;8.644;2024-03-25T08:55:48;11.00;99.90
7129;DHT22;3606;52.930;8.644;2024-03-25T08:58:14;11.10;99.90
7129;DHT22;3606;52.930;8.644;2024-03-25T09:00:41;11.50;99.90
7129;DHT22;3606;52.930;8.644;2024-03-25T09:03:06;12.80;99.90
7129;DHT22;3606;52.930;8.644;2024-03-25T09:05:33;12.80;99.90
7129;DHT22;3606;52.930;8.644;2024-03-25T09:08:00;12.10;99.90
7129;DHT22;3606;52.930;8.644;2024-03-25T09:10:26;12.00;99.90
7129;DHT22;3606;52.930;8.644;2024-03-25T09:13:10;12.80;99.90
7129;DHT22;3606;52.930;8.644;2024-03-25T09:15:35;13.40;99.90
7129;DHT22;3606;52.930;8.644;2024-03-25T09:18:01;13.50;99.90
7129;DHT22;3606;52.930;8.644;2024-03-25T09:20:27;13.30;99.90
7129;DHT22;3606;52.930;8.644;2024-03-25T09:22:53;13.40;99.90
7129;DHT22;3606;52.930;8.644;2024-03-25T09:25:19;12.30;99.90
7129;DHT22;3606;52.930;8.644;2024-03-25T09:27:48;12.20;99.90
7129;DHT22;3606;52.930;8.644;2024-03-25T09:30:15;11.80;99.90
7129;DHT22;3606;52.930;8.644;2024-03-25T09:32:41;11.30;99.90
7129;DHT22;3606;52.930;8.644;2024-03-25T09:35:11;11.40;99.90
7129;DHT22;3606;52.930;8.644;2024-03-25T09:37:37;11.20;99.90
7129;DHT22;3606;52.930;8.644;2024-03-25T09:40:03;10.70;99.90
7129;DHT22;3606;52.930;8.644;2024-03-25T09:42:49;10.30;99.90
7129;DHT22;3606;52.930;8.644;2024-03-25T09:45:18;10.10;99.90
7129;DHT22;3606;52.930;8.644;2024-03-25T09:47:48;10.00;99.90
7129;DHT22;3606;52.930;8.644;2024-03-25T09:50:14;10.00;99.90
7129;DHT22;3606;52.930;8.644;2024-03-25T09:52:47;10.10;99.90
7129;DHT22;3606;52.930;8.644;2024-03-25T09:55:13;10.40;99.90
7129;DHT22;3606;52.930;8.644;2024-03-25T09:57:38;10.80;99.90
7129;DHT22;3606;52.930;8.644;2024-03-25T10:00:07;10.90;99.90
7129;DHT22;3606;52.930;8.644;2024-03-25T10:02:38;10.70;99.90
7129;DHT22;3606;52.930;8.644;2024-03-25T10:05:05;10.40;99.90
7129;DHT22;3606;52.930;8.644;2024-03-25T10:07:32;10.10;99.90
7129;DHT22;3606;52.930;8.644;2024-03-25T10:09:58;9.80;99.90
7129;DHT22;3606;52.930;8.644;2024-03-25T10:12:24;9.70;99.90
7129;DHT22;3606;52.930;8.644;2024-03-25T10:14:50;9.80;99.90
7129;DHT22;3606;52.930;8.644;2024-03-25T10:17:16;10.00;99.90
7129;DHT22;3606;52.930;8.644;2024-03-25T10:19:41;10.20;99.90
7129;DHT22;3606;52.930;8.644;2024-03-25T10:22:08;10.60;99.90
7129;DHT22;3606;52.930;8.644;2024-03-25T10:24:41;11.00;99.90
7129;DHT22;3606;52.930;8.644;2024-03-25T10:27:10;11.10;99.90
7129;DHT22;3606;52.930;8.644;2024-03-25T10:29:37;11.30;99.90
7129;DHT22;3606;52.930;8.644;2024-03-25T10:32:03;11.20;99.90
7129;DHT22;3606;52.930;8.644;2024-03-25T10:34:30;11.10;99.90
7129;DHT22;3606;52.930;8.644;2024-03-25T10:37:01;11.00;99.90
7129;DHT22;3606;52.930;8.644;2024-03-25T10:39:31;11.40;99.90
7129;DHT22;3606;52.930;8.644;2024-03-25T10:41:58;13.30;99.90
7129;DHT22;3606;52.930;8.644;2024-03-25T10:44:29;15.70;99.90
7129;DHT22;3606;52.930;8.644;2024-03-25T10:47:01;17.10;99.90
7129;DHT22;3606;52.930;8.644;2024-03-25T10:49:49;16.30;99.90
7129;DHT22;3606;52.930;8.644;2024-03-25T10:52:16;14.90;99.90
7129;DHT22;3606;52.930;8.644;2024-03-25T10:54:44;13.80;99.90
7129;DHT22;3606;52.930;8.644;2024-03-25T10:57:13;13.10;99.90
7129;DHT22;3606;52.930;8.644;2024-03-25T10:59:40;12.80;99.90
7129;DHT22;3606;52.930;8.644;2024-03-25T11:02:09;12.70;99.90
7129;DHT22;3606;52.930;8.644;2024-03-25T11:04:35;12.50;99.90
7129;DHT22;3606;52.930;8.644;2024-03-25T11:07:12;12.50;99.90
7129;DHT22;3606;52.930;8.644;2024-03-25T11:09:39;12.50;99.90
7129;DHT22;3606;52.930;8.644;2024-03-25T11:12:05;12.80;99.90
7129;DHT22;3606;52.930;8.644;2024-03-25T11:14:31;13.50;99.90
7129;DHT22;3606;52.930;8.644;2024-03-25T11:17:01;14.00;99.90
7129;DHT22;3606;52.930;8.644;2024-03-25T11:19:30;14.10;99.90
7129;DHT22;3606;52.930;8.644;2024-03-25T11:22:08;13.90;99.90
7129;DHT22;3606;52.930;8.644;2024-03-25T11:24:35;13.60;99.90
7129;DHT22;3606;52.930;8.644;2024-03-25T11:27:06;13.40;99.90
7129;DHT22;3606;52.930;8.644;2024-03-25T11:29:32;13.50;99.90
7129;DHT22;3606;52.930;8.644;2024-03-25T11:32:01;13.60;99.90
7129;DHT22;3606;52.930;8.644;2024-03-25T11:34:28;13.70;99.90
7129;DHT22;3606;52.930;8.644;2024-03-25T11:36:54;13.70;99.90
7129;DHT22;3606;52.930;8.644;2024-03-25T11:39:22;13.50;99.90
7129;DHT22;3606;52.930;8.644;2024-03-25T11:41:48;13.10;99.90
7129;DHT22;3606;52.930;8.644;2024-03-25T11:44:13;12.90;99.90
7129;DHT22;3606;52.930;8.644;2024-03-25T11:46:39;12.70;99.90
7129;DHT22;3606;52.930;8.644;2024-03-25T11:49:06;12.60;99.90
7129;DHT22;3606;52.930;8.644;2024-03-25T11:51:35;12.70;99.90
7129;DHT22;3606;52.930;8.644;2024-03-25T11:54:04;13.10;99.90
7129;DHT22;3606;52.930;8.644;2024-03-25T11:56:31;13.10;99.90
7129;DHT22;3606;52.930;8.644;2024-03-25T11:58:57;13.10;99.90
7129;DHT22;3606;52.930;8.644;2024-03-25T12:01:23;13.00;99.90
7129;DHT22;3606;52.930;8.644;2024-03-25T12:03:48;12.90;99.90
7129;DHT22;3606;52.930;8.644;2024-03-25T12:06:14;12.60;99.90
7129;DHT22;3606;52.930;8.644;2024-03-25T12:08:39;12.60;99.90
7129;DHT22;3606;52.930;8.644;2024-03-25T12:11:25;12.90;99.90
7129;DHT22;3606;52.930;8.644;2024-03-25T12:13:50;13.60;99.90
7129;DHT22;3606;52.930;8.644;2024-03-25T12:16:17;14.00;99.90
7129;DHT22;3606;52.930;8.644;2024-03-25T12:18:42;14.40;99.90
7129;DHT22;3606;52.930;8.644;2024-03-25T12:21:08;14.10;99.90
7129;DHT22;3606;52.930;8.644;2024-03-25T12:23:36;14.10;99.90
7129;DHT22;3606;52.930;8.644;2024-03-25T12:26:03;13.70;99.90
7129;DHT22;3606;52.930;8.644;2024-03-25T12:28:32;13.30;99.90
7129;DHT22;3606;52.930;8.644;2024-03-25T12:31:00;13.00;99.90
7129;DHT22;3606;52.930;8.644;2024-03-25T12:33:26;12.80;99.90
7129;DHT22;3606;52.930;8.644;2024-03-25T12:35:53;13.30;99.90
7129;DHT22;3606;52.930;8.644;2024-03-25T12:38:26;14.40;99.90
7129;DHT22;3606;52.930;8.644;2024-03-25T12:40:52;14.80;99.90
7129;DHT22;3606;52.930;8.644;2024-03-25T12:43:18;15.20;99.90
7129;DHT22;3606;52.930;8.644;2024-03-25T12:45:44;15.70;99.90
7129;DHT22;3606;52.930;8.644;2024-03-25T12:48:10;16.10;99.90
7129;DHT22;3606;52.930;8.644;2024-03-25T12:50:36;16.70;99.90
7129;DHT22;3606;52.930;8.644;2024-03-25T12:53:02;17.00;99.90
7129;DHT22;3606;52.930;8.644;2024-03-25T12:55:31;17.40;99.90
7129;DHT22;3606;52.930;8.644;2024-03-25T12:57:57;17.70;99.90
7129;DHT22;3606;52.930;8.644;2024-03-25T13:00:23;17.70;99.90
7129;DHT22;3606;52.930;8.644;2024-03-25T13:02:49;18.00;99.90
7129;DHT22;3606;52.930;8.644;2024-03-25T13:05:15;18.10;99.90
7129;DHT22;3606;52.930;8.644;2024-03-25T13:07:41;18.50;99.90
7129;DHT22;3606;52.930;8.644;2024-03-25T13:10:07;18.30;99.90
7129;DHT22;3606;52.930;8.644;2024-03-25T13:12:32;17.40;99.90
7129;DHT22;3606;52.930;8.644;2024-03-25T13:14:58;16.40;99.90
7129;DHT22;3606;52.930;8.644;2024-03-25T13:17:24;15.60;99.90
7129;DHT22;3606;52.930;8.644;2024-03-25T13:19:50;14.80;99.90
7129;DHT22;3606;52.930;8.644;2024-03-25T13:22:16;13.90;99.90
7129;DHT22;3606;52.930;8.644;2024-03-25T13:24:41;13.40;99.90
7129;DHT22;3606;52.930;8.644;2024-03-25T13:27:07;13.10;99.90
7129;DHT22;3606;52.930;8.644;2024-03-25T13:29:33;12.90;99.90
7129;DHT22;3606;52.930;8.644;2024-03-25T13:32:01;12.70;99.90
7129;DHT22;3606;52.930;8.644;2024-03-25T13:34:27;12.60;99.90
7129;DHT22;3606;52.930;8.644;2024-03-25T13:36:53;12.70;99.90
7129;DHT22;3606;52.930;8.644;2024-03-25T13:39:18;13.20;99.90
7129;DHT22;3606;52.930;8.644;2024-03-25T13:41:44;14.00;99.90
7129;DHT22;3606;52.930;8.644;2024-03-25T13:44:11;14.40;99.90
7129;DHT22;3606;52.930;8.644;2024-03-25T13:46:36;15.50;99.90
7129;DHT22;3606;52.930;8.644;2024-03-25T13:49:02;16.50;99.90
7129;DHT22;3606;52.930;8.644;2024-03-25T13:51:27;15.90;99.90
7129;DHT22;3606;52.930;8.644;2024-03-25T13:53:53;15.90;99.90
7129;DHT22;3606;52.930;8.644;2024-03-25T13:56:19;17.10;99.90
7129;DHT22;3606;52.930;8.644;2024-03-25T13:58:45;18.70;99.90
7129;DHT22;3606;52.930;8.644;2024-03-25T14:01:10;19.80;99.90
7129;DHT22;3606;52.930;8.644;2024-03-25T14:03:36;20.50;99.90
7129;DHT22;3606;52.930;8.644;2024-03-25T14:06:02;20.60;99.90
7129;DHT22;3606;52.930;8.644;2024-03-25T14:08:27;20.70;99.90
7129;DHT22;3606;52.930;8.644;2024-03-25T14:10:57;19.10;99.90
7129;DHT22;3606;52.930;8.644;2024-03-25T14:13:24;17.50;99.90
7129;DHT22;3606;52.930;8.644;2024-03-25T14:15:50;17.20;99.90
7129;DHT22;3606;52.930;8.644;2024-03-25T14:18:16;18.20;99.90
7129;DHT22;3606;52.930;8.644;2024-03-25T14:20:42;18.90;99.90
7129;DHT22;3606;52.930;8.644;2024-03-25T14:23:08;18.90;99.90
7129;DHT22;3606;52.930;8.644;2024-03-25T14:25:34;18.80;99.90
7129;DHT22;3606;52.930;8.644;2024-03-25T14:27:59;18.50;99.90
7129;DHT22;3606;52.930;8.644;2024-03-25T14:30:25;17.30;99.90
7129;DHT22;3606;52.930;8.644;2024-03-25T14:32:51;16.90;99.90
7129;DHT22;3606;52.930;8.644;2024-03-25T14:35:16;16.20;99.90
7129;DHT22;3606;52.930;8.644;2024-03-25T14:37:42;16.30;99.90
7129;DHT22;3606;52.930;8.644;2024-03-25T14:40:08;16.20;99.90
7129;DHT22;3606;52.930;8.644;2024-03-25T14:42:34;15.00;99.90
7129;DHT22;3606;52.930;8.644;2024-03-25T14:45:00;14.10;99.90
7129;DHT22;3606;52.930;8.644;2024-03-25T14:47:25;13.80;99.90
7129;DHT22;3606;52.930;8.644;2024-03-25T14:49:51;14.30;99.90
7129;DHT22;3606;52.930;8.644;2024-03-25T14:52:16;14.30;99.90
7129;DHT22;3606;52.930;8.644;2024-03-25T14:54:42;13.90;99.90
7129;DHT22;3606;52.930;8.644;2024-03-25T14:57:08;13.40;99.90
7129;DHT22;3606;52.930;8.644;2024-03-25T14:59:33;12.90;99.90
7129;DHT22;3606;52.930;8.644;2024-03-25T15:02:00;12.70;99.90
7129;DHT22;3606;52.930;8.644;2024-03-25T15:04:27;12.30;99.90
7129;DHT22;3606;52.930;8.644;2024-03-25T15:06:52;12.20;99.90
7129;DHT22;3606;52.930;8.644;2024-03-25T15:09:18;12.10;99.90
7129;DHT22;3606;52.930;8.644;2024-03-25T15:11:45;12.10;99.90
7129;DHT22;3606;52.930;8.644;2024-03-25T15:14:11;12.50;99.90
7129;DHT22;3606;52.930;8.644;2024-03-25T15:16:36;12.90;99.90
7129;DHT22;3606;52.930;8.644;2024-03-25T15:19:02;14.00;99.90
7129;DHT22;3606;52.930;8.644;2024-03-25T15:21:28;15.40;99.90
7129;DHT22;3606;52.930;8.644;2024-03-25T15:23:54;15.40;99.90
7129;DHT22;3606;52.930;8.644;2024-03-25T15:26:19;15.20;99.90
7129;DHT22;3606;52.930;8.644;2024-03-25T15:28:47;15.70;99.90
7129;DHT22;3606;52.930;8.644;2024-03-25T15:31:12;15.50;99.90
7129;DHT22;3606;52.930;8.644;2024-03-25T15:33:38;15.00;99.90
7129;DHT22;3606;52.930;8.644;2024-03-25T15:36:04;13.90;99.90
7129;DHT22;3606;52.930;8.644;2024-03-25T15:38:30;13.40;99.90
7129;DHT22;3606;52.930;8.644;2024-03-25T15:40:55;13.00;99.90
7129;DHT22;3606;52.930;8.644;2024-03-25T15:43:21;12.60;99.90
7129;DHT22;3606;52.930;8.644;2024-03-25T15:45:57;12.40;99.90
7129;DHT22;3606;52.930;8.644;2024-03-25T15:48:23;12.20;99.90
7129;DHT22;3606;52.930;8.644;2024-03-25T15:50:48;12.20;99.90
7129;DHT22;3606;52.930;8.644;2024-03-25T15:53:14;12.30;99.90
7129;DHT22;3606;52.930;8.644;2024-03-25T15:55:41;12.30;99.90
7129;DHT22;3606;52.930;8.644;2024-03-25T15:58:08;12.20;99.90
7129;DHT22;3606;52.930;8.644;2024-03-25T16:00:34;12.20;99.90
7129;DHT22;3606;52.930;8.644;2024-03-25T16:03:00;12.10;99.90
7129;DHT22;3606;52.930;8.644;2024-03-25T16:05:26;12.10;99.90